aviador You're here:

WAAA Decoded Metar

UJUNG PANDANG in INDONESIA
Report Time2017-10-23 05:44:00
UTC Time2017-10-23 05:52:18
Flight Rules mvfr MVFR
WindVRB at 05 kt
Visibility9000 m
Phenomena:Thuderstorm Rain
thunderstorm
Clouds:Few CB 017 Hf
Scattered 018 Hf
Expected CloudBase > 3,200 ft AGL from Temp-Dew spread
Ceiling1,800 ft
Temp31°C (ISA +16)
Dew Point23°C (62% RH)
Heat Index35.4°C
QNH1009 hPa
Density Alt2,388 ft
Elevation46 ft
Report Wrong Elevation
Raw Report
WAAA 230544Z VRB05KT 9000 TS FEW017CB SCT018 31/23 Q1009 FM0550
TL0630 4000 TSRA FEW017CB BKN018=

Extra information for WAAA:More info

Metar Taf Metar & Taf Last 4 Metars F.Rules Stats Wind Profile Meteogram Temp Stats Airport Information Weather charts Add Link Nearby VenuesMetar ALERT Operation Metar Decoded Social comments